createdAt,value
2018-02-09T00:00:43.970Z,1005.65
2018-02-09T00:02:37.300Z,1005.62
2018-02-09T00:03:37.259Z,1005.65
2018-02-09T00:05:30.576Z,1005.62
2018-02-09T00:06:30.550Z,1005.65
2018-02-09T00:08:23.401Z,1005.69
2018-02-09T00:09:23.349Z,1005.65
2018-02-09T00:11:16.169Z,1005.59
2018-02-09T00:12:16.142Z,1005.62
2018-02-09T00:14:08.983Z,1005.59
2018-02-09T00:15:08.934Z,1005.61
2018-02-09T00:17:02.263Z,1005.62
2018-02-09T00:18:02.235Z,1005.63
2018-02-09T00:19:55.069Z,1005.63
2018-02-09T00:20:55.029Z,1005.61
2018-02-09T00:22:48.354Z,1005.61
2018-02-09T00:23:48.328Z,1005.63
2018-02-09T00:25:41.657Z,1005.61
2018-02-09T00:26:41.620Z,1005.62
2018-02-09T00:28:34.936Z,1005.64
2018-02-09T00:29:34.909Z,1005.60
2018-02-09T00:31:27.750Z,1005.62
2018-02-09T00:32:28.317Z,1005.61
2018-02-09T00:34:21.182Z,1005.62
2018-02-09T00:35:20.542Z,1005.61
2018-02-09T00:37:13.357Z,1005.57
2018-02-09T00:38:13.317Z,1005.55
2018-02-09T00:40:06.183Z,1005.61
2018-02-09T00:41:06.108Z,1005.54
2018-02-09T00:42:58.950Z,1005.56
2018-02-09T00:43:58.907Z,1005.59
2018-02-09T00:45:51.728Z,1005.60
2018-02-09T00:46:51.700Z,1005.57
2018-02-09T00:48:44.540Z,1005.57
2018-02-09T00:49:44.496Z,1005.58
2018-02-09T00:51:37.320Z,1005.54
2018-02-09T00:52:37.295Z,1005.58
2018-02-09T00:54:30.132Z,1005.56
2018-02-09T00:55:30.095Z,1005.56
2018-02-09T00:57:22.919Z,1005.52
2018-02-09T00:58:22.891Z,1005.47
2018-02-09T01:00:16.220Z,1005.46
2018-02-09T01:01:16.182Z,1005.47
2018-02-09T01:03:09.008Z,1005.49
2018-02-09T01:04:08.982Z,1005.50
2018-02-09T01:06:01.818Z,1005.46
2018-02-09T01:07:01.779Z,1005.48
2018-02-09T01:08:55.094Z,1005.41
2018-02-09T01:09:55.065Z,1005.45
2018-02-09T01:11:47.906Z,1005.41
2018-02-09T01:12:47.863Z,1005.39
2018-02-09T01:14:41.191Z,1005.42
2018-02-09T01:15:41.163Z,1005.38
2018-02-09T01:17:33.998Z,1005.38
2018-02-09T01:18:33.954Z,1005.39
2018-02-09T01:20:26.775Z,1005.35
2018-02-09T01:21:26.750Z,1005.35
2018-02-09T01:23:19.583Z,1005.35
2018-02-09T01:24:19.544Z,1005.36
2018-02-09T01:26:12.365Z,1005.31
2018-02-09T01:27:12.341Z,1005.32
2018-02-09T01:29:05.182Z,1005.34
2018-02-09T01:30:05.140Z,1005.35
2018-02-09T01:31:57.962Z,1005.33
2018-02-09T01:32:57.933Z,1005.34
2018-02-09T01:34:51.262Z,1005.37
2018-02-09T01:35:51.222Z,1005.32
2018-02-09T01:37:44.535Z,1005.32
2018-02-09T01:38:44.513Z,1005.31
2018-02-09T01:40:37.360Z,1005.34
2018-02-09T01:41:37.319Z,1005.33
2018-02-09T01:43:30.129Z,1005.31
2018-02-09T01:44:30.104Z,1005.32
2018-02-09T01:46:22.941Z,1005.37
2018-02-09T01:47:22.898Z,1005.36
2018-02-09T01:49:15.722Z,1005.33
2018-02-09T01:50:15.699Z,1005.33
2018-02-09T01:52:09.023Z,1005.28
2018-02-09T01:53:08.984Z,1005.27
2018-02-09T01:55:02.309Z,1005.28
2018-02-09T01:56:02.282Z,1005.29
2018-02-09T01:57:55.117Z,1005.31
2018-02-09T01:58:55.075Z,1005.30
2018-02-09T02:00:47.897Z,1005.30
2018-02-09T02:01:47.873Z,1005.29
2018-02-09T02:03:40.718Z,1005.29
2018-02-09T02:04:40.672Z,1005.28
2018-02-09T02:06:33.495Z,1005.28
2018-02-09T02:07:33.470Z,1005.30
2018-02-09T02:09:26.800Z,1005.31
2018-02-09T02:10:26.757Z,1005.31
2018-02-09T02:12:19.584Z,1005.31
2018-02-09T02:13:19.558Z,1005.27
2018-02-09T02:15:12.887Z,1005.28
2018-02-09T02:16:12.848Z,1005.27
2018-02-09T02:18:06.164Z,1005.24
2018-02-09T02:19:06.138Z,1005.25
2018-02-09T02:20:58.974Z,1005.23
2018-02-09T02:21:58.932Z,1005.24
2018-02-09T02:23:51.758Z,1005.23
2018-02-09T02:24:51.732Z,1005.17
2018-02-09T02:26:45.062Z,1005.14
2018-02-09T02:27:45.022Z,1005.12
2018-02-09T02:29:37.846Z,1005.13
2018-02-09T02:30:37.822Z,1005.10
2018-02-09T02:32:31.165Z,1005.06
2018-02-09T02:33:31.111Z,1005.09
2018-02-09T02:35:23.931Z,1005.06
2018-02-09T02:36:23.906Z,1005.09
2018-02-09T02:38:16.745Z,1005.05
2018-02-09T02:39:16.703Z,1005.02
2018-02-09T02:41:10.039Z,1005.06
2018-02-09T02:42:10.002Z,1005.02
2018-02-09T02:44:03.331Z,1005.00
2018-02-09T02:45:03.291Z,1004.97
2018-02-09T02:46:56.618Z,1004.97
2018-02-09T02:47:56.592Z,1004.98
2018-02-09T02:49:49.632Z,1004.93
2018-02-09T02:50:49.388Z,1005.00
2018-02-09T02:52:42.702Z,1004.93
2018-02-09T02:53:42.678Z,1004.91
2018-02-09T02:55:35.527Z,1004.86
2018-02-09T02:56:35.475Z,1004.86
2018-02-09T02:58:28.304Z,1004.81
2018-02-09T02:59:28.277Z,1004.82
2018-02-09T03:01:21.114Z,1004.83
2018-02-09T03:02:21.072Z,1004.81
2018-02-09T03:04:14.493Z,1004.81
2018-02-09T03:05:13.867Z,1004.82
2018-02-09T03:07:06.715Z,1004.77
2018-02-09T03:08:06.667Z,1004.80
2018-02-09T03:09:59.485Z,1004.80
2018-02-09T03:10:59.459Z,1004.80
2018-02-09T03:12:52.299Z,1004.74
2018-02-09T03:13:52.259Z,1004.74
2018-02-09T03:15:45.080Z,1004.72
2018-02-09T03:16:45.050Z,1004.69
2018-02-09T03:18:37.890Z,1004.66
2018-02-09T03:19:37.847Z,1004.64
2018-02-09T03:21:31.161Z,1004.61
2018-02-09T03:22:31.136Z,1004.63
2018-02-09T03:24:23.973Z,1004.60
2018-02-09T03:25:23.930Z,1004.59
2018-02-09T03:27:16.763Z,1004.63
2018-02-09T03:28:16.736Z,1004.60
2018-02-09T03:30:10.077Z,1004.62
2018-02-09T03:31:10.026Z,1004.52
2018-02-09T03:33:03.351Z,1004.54
2018-02-09T03:34:03.326Z,1004.53
2018-02-09T03:35:56.161Z,1004.55
2018-02-09T03:36:56.126Z,1004.51
2018-02-09T03:38:48.944Z,1004.51
2018-02-09T03:39:48.918Z,1004.52
2018-02-09T03:41:42.251Z,1004.52
2018-02-09T03:42:42.215Z,1004.50
2018-02-09T03:44:35.029Z,1004.50
2018-02-09T03:45:35.004Z,1004.51
2018-02-09T03:47:28.331Z,1004.51
2018-02-09T03:48:28.293Z,1004.52
2018-02-09T03:50:21.119Z,1004.58
2018-02-09T03:51:21.090Z,1004.55
2018-02-09T03:53:13.940Z,1004.56
2018-02-09T03:54:13.888Z,1004.56
2018-02-09T03:56:06.712Z,1004.62
2018-02-09T03:57:06.689Z,1004.58
2018-02-09T03:58:59.533Z,1004.60
2018-02-09T03:59:59.484Z,1004.58
2018-02-09T04:01:52.307Z,1004.59
2018-02-09T04:02:52.283Z,1004.60
2018-02-09T04:04:45.152Z,1004.63
2018-02-09T04:05:45.115Z,1004.60
2018-02-09T04:07:38.431Z,1004.61
2018-02-09T04:08:38.405Z,1004.57
2018-02-09T04:10:31.260Z,1004.59
2018-02-09T04:11:31.206Z,1004.59
2018-02-09T04:13:24.520Z,1004.57
2018-02-09T04:14:24.494Z,1004.54
2018-02-09T04:16:17.340Z,1004.56
2018-02-09T04:17:17.288Z,1004.53
2018-02-09T04:19:10.623Z,1004.53
2018-02-09T04:20:10.595Z,1004.50
2018-02-09T04:22:03.934Z,1004.51
2018-02-09T04:23:03.885Z,1004.49
2018-02-09T04:24:56.709Z,1004.52
2018-02-09T04:25:56.689Z,1004.48
2018-02-09T04:27:50.036Z,1004.49
2018-02-09T04:28:49.985Z,1004.47
2018-02-09T04:30:43.304Z,1004.50
2018-02-09T04:31:43.276Z,1004.49
2018-02-09T04:33:36.611Z,1004.46
2018-02-09T04:34:36.564Z,1004.45
2018-02-09T04:36:29.391Z,1004.43
2018-02-09T04:37:29.368Z,1004.44
2018-02-09T04:39:22.708Z,1004.39
2018-02-09T04:40:22.667Z,1004.39
2018-02-09T04:42:15.486Z,1004.37
2018-02-09T04:43:15.460Z,1004.35
2018-02-09T04:45:08.294Z,1004.40
2018-02-09T04:46:08.255Z,1004.39
2018-02-09T04:48:01.082Z,1004.37
2018-02-09T04:49:01.054Z,1004.39
2018-02-09T04:50:53.896Z,1004.37
2018-02-09T04:51:53.849Z,1004.38
2018-02-09T04:53:46.670Z,1004.38
2018-02-09T04:54:46.646Z,1004.38
2018-02-09T04:56:39.495Z,1004.44
2018-02-09T04:57:39.441Z,1004.41
2018-02-09T04:59:32.761Z,1004.39
2018-02-09T05:00:32.732Z,1004.38
2018-02-09T05:02:25.571Z,1004.42
2018-02-09T05:03:25.531Z,1004.41
2018-02-09T05:05:18.849Z,1004.39
2018-02-09T05:06:18.824Z,1004.39
2018-02-09T05:08:11.661Z,1004.37
2018-02-09T05:09:11.620Z,1004.34
2018-02-09T05:11:04.454Z,1004.36
2018-02-09T05:12:04.424Z,1004.34
2018-02-09T05:13:57.763Z,1004.35
2018-02-09T05:14:57.713Z,1004.38
2018-02-09T05:16:51.030Z,1004.38
2018-02-09T05:17:51.010Z,1004.33
2018-02-09T05:19:43.841Z,1004.31
2018-02-09T05:20:43.799Z,1004.33
2018-02-09T05:22:36.621Z,1004.31
2018-02-09T05:23:36.595Z,1004.26
2018-02-09T05:25:29.939Z,1004.26
2018-02-09T05:26:29.900Z,1004.29
2018-02-09T05:28:22.726Z,1004.30
2018-02-09T05:29:22.699Z,1004.27
2018-02-09T05:31:16.028Z,1004.24
2018-02-09T05:32:15.988Z,1004.27
2018-02-09T05:34:09.357Z,1004.22
2018-02-09T05:35:09.280Z,1004.20
2018-02-09T05:37:02.133Z,1004.16
2018-02-09T05:38:02.092Z,1004.18
2018-02-09T05:39:55.407Z,1004.17
2018-02-09T05:40:55.382Z,1004.25
2018-02-09T05:42:48.220Z,1004.16
2018-02-09T05:43:48.181Z,1004.15
2018-02-09T05:45:41.000Z,1004.17
2018-02-09T05:46:40.974Z,1004.20
2018-02-09T05:48:33.811Z,1004.19
2018-02-09T05:49:33.772Z,1004.11
2018-02-09T05:51:26.595Z,1004.13
2018-02-09T05:52:26.568Z,1004.08
2018-02-09T05:54:19.898Z,1004.08
2018-02-09T05:55:19.859Z,1004.06
2018-02-09T05:57:12.686Z,1004.10
2018-02-09T05:58:12.662Z,1004.08
2018-02-09T06:00:05.500Z,1004.07
2018-02-09T06:01:05.462Z,1004.09
2018-02-09T06:02:58.776Z,1004.08
2018-02-09T06:03:58.752Z,1004.08
2018-02-09T06:05:51.588Z,1004.05
2018-02-09T06:06:51.547Z,1004.03
2018-02-09T06:08:44.375Z,1004.01
2018-02-09T06:09:44.345Z,1004.04
2018-02-09T06:11:37.680Z,1003.99
2018-02-09T06:12:37.638Z,1004.05
2018-02-09T06:14:30.966Z,1004.01
2018-02-09T06:15:30.943Z,1004.01
2018-02-09T06:17:23.776Z,1003.99
2018-02-09T06:18:23.741Z,1003.97
2018-02-09T06:20:16.557Z,1003.99
2018-02-09T06:21:16.531Z,1003.98
2018-02-09T06:23:09.372Z,1004.00
2018-02-09T06:24:09.337Z,1003.95
2018-02-09T06:26:02.160Z,1003.92
2018-02-09T06:27:02.139Z,1003.91
2018-02-09T06:28:54.976Z,1003.86
2018-02-09T06:29:54.934Z,1003.84
2018-02-09T06:31:47.759Z,1003.87
2018-02-09T06:32:47.732Z,1003.81
2018-02-09T06:34:40.569Z,1003.81
2018-02-09T06:35:40.529Z,1003.82
2018-02-09T06:37:33.350Z,1003.81
2018-02-09T06:38:33.325Z,1003.83
2018-02-09T06:40:26.654Z,1003.84
2018-02-09T06:41:26.615Z,1003.82
2018-02-09T06:43:19.435Z,1003.82
2018-02-09T06:44:19.407Z,1003.80
2018-02-09T06:46:12.741Z,1003.85
2018-02-09T06:47:12.702Z,1003.84
2018-02-09T06:49:06.016Z,1003.82
2018-02-09T06:50:05.996Z,1003.84
2018-02-09T06:51:58.829Z,1003.85
2018-02-09T06:52:58.787Z,1003.81
2018-02-09T06:54:52.111Z,1003.83
2018-02-09T06:55:52.087Z,1003.87
2018-02-09T06:57:44.932Z,1003.84
2018-02-09T06:58:44.883Z,1003.86
2018-02-09T07:00:37.704Z,1003.79
2018-02-09T07:01:37.686Z,1003.81
2018-02-09T07:03:30.515Z,1003.81
2018-02-09T07:04:30.475Z,1003.79
2018-02-09T07:06:23.300Z,1003.80
2018-02-09T07:07:23.272Z,1003.77
2018-02-09T07:09:16.118Z,1003.77
2018-02-09T07:10:16.078Z,1003.72
2018-02-09T07:12:09.390Z,1003.73
2018-02-09T07:13:09.367Z,1003.68
2018-02-09T07:15:02.206Z,1003.73
2018-02-09T07:16:02.161Z,1003.71
2018-02-09T07:17:54.985Z,1003.76
2018-02-09T07:18:54.961Z,1003.72
2018-02-09T07:20:48.296Z,1003.74
2018-02-09T07:21:48.255Z,1003.71
2018-02-09T07:23:41.579Z,1003.71
2018-02-09T07:24:41.556Z,1003.75
2018-02-09T07:26:34.445Z,1003.75
2018-02-09T07:27:34.403Z,1003.72
2018-02-09T07:29:27.738Z,1003.66
2018-02-09T07:30:27.711Z,1003.74
2018-02-09T07:32:21.043Z,1003.72
2018-02-09T07:33:21.002Z,1003.70
2018-02-09T07:35:13.835Z,1003.72
2018-02-09T07:36:13.801Z,1003.72
2018-02-09T07:38:06.640Z,1003.69
2018-02-09T07:39:06.600Z,1003.71
2018-02-09T07:40:59.924Z,1003.69
2018-02-09T07:41:59.892Z,1003.62
2018-02-09T07:43:53.232Z,1003.63
2018-02-09T07:44:53.189Z,1003.64
2018-02-09T07:46:46.095Z,1003.63
2018-02-09T07:47:46.069Z,1003.66
2018-02-09T07:49:38.908Z,1003.59
2018-02-09T07:50:38.865Z,1003.60
2018-02-09T07:52:31.696Z,1003.60
2018-02-09T07:53:31.669Z,1003.61
2018-02-09T07:55:25.010Z,1003.60
2018-02-09T07:56:24.970Z,1003.56
2018-02-09T07:58:17.835Z,1003.57
2018-02-09T07:59:17.774Z,1003.52
2018-02-09T08:01:11.105Z,1003.56
2018-02-09T08:02:11.071Z,1003.53
2018-02-09T08:04:03.889Z,1003.54
2018-02-09T08:05:03.864Z,1003.52
2018-02-09T08:06:57.206Z,1003.52
2018-02-09T08:07:57.163Z,1003.50
2018-02-09T08:09:50.480Z,1003.52
2018-02-09T08:10:50.454Z,1003.47
2018-02-09T08:12:43.788Z,1003.50
2018-02-09T08:13:43.747Z,1003.50
2018-02-09T08:15:36.571Z,1003.49
2018-02-09T08:16:36.552Z,1003.50
2018-02-09T08:18:29.879Z,1003.40
2018-02-09T08:19:29.841Z,1003.48
2018-02-09T08:21:22.665Z,1003.51
2018-02-09T08:22:22.643Z,1003.51
2018-02-09T08:24:15.512Z,1003.45
2018-02-09T08:25:15.437Z,1003.46
2018-02-09T08:27:08.262Z,1003.46
2018-02-09T08:28:08.237Z,1003.48
2018-02-09T08:30:01.077Z,1003.51
2018-02-09T08:31:01.036Z,1003.47
2018-02-09T08:32:54.372Z,1003.51
2018-02-09T08:33:54.342Z,1003.47
2018-02-09T08:35:47.192Z,1003.50
2018-02-09T08:36:47.150Z,1003.51
2018-02-09T08:38:39.992Z,1003.47
2018-02-09T08:39:39.973Z,1003.43
2018-02-09T08:41:33.324Z,1003.43
2018-02-09T08:42:33.283Z,1003.45
2018-02-09T08:44:26.620Z,1003.47
2018-02-09T08:45:26.586Z,1003.47
2018-02-09T08:47:19.926Z,1003.39
2018-02-09T08:48:19.889Z,1003.37
2018-02-09T08:50:13.201Z,1003.42
2018-02-09T08:51:13.175Z,1003.38
2018-02-09T08:53:06.033Z,1003.41
2018-02-09T08:54:05.982Z,1003.40
2018-02-09T08:55:58.806Z,1003.30
2018-02-09T08:56:58.780Z,1003.35
2018-02-09T08:58:51.622Z,1003.30
2018-02-09T08:59:51.582Z,1003.28
2018-02-09T09:01:44.410Z,1003.30
2018-02-09T09:02:44.383Z,1003.27
2018-02-09T09:04:37.715Z,1003.26
2018-02-09T09:05:37.676Z,1003.27
2018-02-09T09:07:30.994Z,1003.25
2018-02-09T09:08:30.967Z,1003.26
2018-02-09T09:10:24.300Z,1003.20
2018-02-09T09:11:24.260Z,1003.22
2018-02-09T09:13:17.587Z,1003.19
2018-02-09T09:14:17.562Z,1003.16
2018-02-09T09:16:10.896Z,1003.19
2018-02-09T09:17:10.858Z,1003.19
2018-02-09T09:19:04.173Z,1003.20
2018-02-09T09:20:04.148Z,1003.16
2018-02-09T09:21:56.988Z,1003.14
2018-02-09T09:22:56.949Z,1003.18
2018-02-09T09:24:50.264Z,1003.15
2018-02-09T09:25:50.241Z,1003.17
2018-02-09T09:27:43.573Z,1003.14
2018-02-09T09:28:43.532Z,1003.12
2018-02-09T09:30:36.854Z,1003.12
2018-02-09T09:31:36.833Z,1003.14
2018-02-09T09:33:30.159Z,1003.10
2018-02-09T09:34:30.122Z,1003.05
2018-02-09T09:36:23.439Z,1003.04
2018-02-09T09:37:23.417Z,1003.05
2018-02-09T09:39:16.761Z,1003.05
2018-02-09T09:40:16.721Z,1003.03
2018-02-09T09:42:10.040Z,1003.02
2018-02-09T09:43:10.013Z,1003.03
2018-02-09T09:45:03.347Z,1003.05
2018-02-09T09:46:03.312Z,1003.03
2018-02-09T09:47:56.131Z,1002.98
2018-02-09T09:48:56.108Z,1002.97
2018-02-09T09:50:48.949Z,1002.99
2018-02-09T09:51:48.908Z,1002.97
2018-02-09T09:53:42.231Z,1002.96
2018-02-09T09:54:42.202Z,1002.92
2018-02-09T09:56:35.545Z,1002.93
2018-02-09T09:57:35.504Z,1002.86
2018-02-09T09:59:28.331Z,1002.89
2018-02-09T10:00:28.307Z,1002.90
2018-02-09T10:02:21.643Z,1002.93
2018-02-09T10:03:21.598Z,1002.93
2018-02-09T10:05:14.920Z,1002.90
2018-02-09T10:06:14.895Z,1002.95
2018-02-09T10:08:08.224Z,1002.88
2018-02-09T10:09:08.188Z,1002.91
2018-02-09T10:11:01.503Z,1002.90
2018-02-09T10:12:01.479Z,1002.86
2018-02-09T10:13:54.823Z,1002.85
2018-02-09T10:14:54.784Z,1002.84
2018-02-09T10:16:48.100Z,1002.81
2018-02-09T10:17:48.074Z,1002.83
2018-02-09T10:19:40.917Z,1002.84
2018-02-09T10:20:40.879Z,1002.85
2018-02-09T10:22:33.703Z,1002.82
2018-02-09T10:23:33.675Z,1002.85
2018-02-09T10:25:27.018Z,1002.80
2018-02-09T10:26:26.980Z,1002.84
2018-02-09T10:28:20.300Z,1002.77
2018-02-09T10:29:20.276Z,1002.79
2018-02-09T10:31:13.624Z,1002.78
2018-02-09T10:32:13.584Z,1002.79
2018-02-09T10:34:06.413Z,1002.77
2018-02-09T10:35:06.391Z,1002.78
2018-02-09T10:36:59.724Z,1002.74
2018-02-09T10:37:59.684Z,1002.73
2018-02-09T10:39:52.504Z,1002.72
2018-02-09T10:40:52.479Z,1002.65
2018-02-09T10:42:45.813Z,1002.61
2018-02-09T10:43:45.773Z,1002.63
2018-02-09T10:45:38.630Z,1002.65
2018-02-09T10:46:38.576Z,1002.60
2018-02-09T10:48:31.412Z,1002.58
2018-02-09T10:49:31.373Z,1002.52
2018-02-09T10:51:24.231Z,1002.52
2018-02-09T10:52:24.171Z,1002.50
2018-02-09T10:54:17.010Z,1002.50
2018-02-09T10:55:16.969Z,1002.45
2018-02-09T10:57:10.285Z,1002.44
2018-02-09T10:58:10.265Z,1002.41
2018-02-09T11:00:03.103Z,1002.45
2018-02-09T11:01:03.061Z,1002.41
2018-02-09T11:02:56.379Z,1002.42
2018-02-09T11:03:56.357Z,1002.35
2018-02-09T11:05:49.724Z,1002.36
2018-02-09T11:06:49.658Z,1002.37
2018-02-09T11:08:42.486Z,1002.34
2018-02-09T11:09:42.457Z,1002.37
2018-02-09T11:11:35.802Z,1002.32
2018-02-09T11:12:35.752Z,1002.29
2018-02-09T11:14:28.676Z,1002.25
2018-02-09T11:15:28.551Z,1002.27
2018-02-09T11:17:21.906Z,1002.23
2018-02-09T11:18:21.844Z,1002.21
2018-02-09T11:20:14.670Z,1002.21
2018-02-09T11:21:14.648Z,1002.23
2018-02-09T11:23:07.494Z,1002.19
2018-02-09T11:24:07.443Z,1002.17
2018-02-09T11:26:00.762Z,1002.16
2018-02-09T11:27:00.740Z,1002.18
2018-02-09T11:28:54.069Z,1002.14
2018-02-09T11:29:54.034Z,1002.09
2018-02-09T11:31:46.864Z,1002.09
2018-02-09T11:32:46.839Z,1002.06
2018-02-09T11:34:39.679Z,1002.05
2018-02-09T11:35:39.638Z,1002.03
2018-02-09T11:37:32.961Z,1002.02
2018-02-09T11:38:32.938Z,1001.99
2018-02-09T11:40:26.296Z,1001.96
2018-02-09T11:41:26.242Z,1001.99
2018-02-09T11:43:19.070Z,1001.98
2018-02-09T11:44:19.043Z,1001.93
2018-02-09T11:46:12.376Z,1001.91
2018-02-09T11:47:12.340Z,1001.86
2018-02-09T11:49:05.669Z,1001.84
2018-02-09T11:50:05.645Z,1001.85
2018-02-09T11:51:58.488Z,1001.82
2018-02-09T11:52:58.448Z,1001.82
2018-02-09T11:54:51.272Z,1001.79
2018-02-09T11:55:51.249Z,1001.76
2018-02-09T11:57:44.087Z,1001.75
2018-02-09T11:58:44.047Z,1001.73
2018-02-09T12:00:36.898Z,1001.75
2018-02-09T12:01:36.850Z,1001.75
2018-02-09T12:03:30.179Z,1001.72
2018-02-09T12:04:30.165Z,1001.72
2018-02-09T12:06:23.457Z,1001.70
2018-02-09T12:07:23.435Z,1001.63
2018-02-09T12:09:16.284Z,1001.62
2018-02-09T12:10:16.240Z,1001.62
2018-02-09T12:12:09.066Z,1001.58
2018-02-09T12:13:09.041Z,1001.54
2018-02-09T12:15:01.883Z,1001.49
2018-02-09T12:16:01.844Z,1001.56
2018-02-09T12:17:55.161Z,1001.52
2018-02-09T12:18:55.138Z,1001.48
2018-02-09T12:20:48.474Z,1001.48
2018-02-09T12:21:48.468Z,1001.49
2018-02-09T12:23:41.752Z,1001.42
2018-02-09T12:24:41.728Z,1001.45
2018-02-09T12:26:34.574Z,1001.40
2018-02-09T12:27:34.529Z,1001.39
2018-02-09T12:29:27.352Z,1001.37
2018-02-09T12:30:27.327Z,1001.35
2018-02-09T12:32:20.168Z,1001.34
2018-02-09T12:33:20.124Z,1001.27
2018-02-09T12:35:13.444Z,1001.24
2018-02-09T12:36:13.421Z,1001.27
2018-02-09T12:38:06.267Z,1001.19
2018-02-09T12:39:06.219Z,1001.21
2018-02-09T12:40:59.539Z,1001.22
2018-02-09T12:41:59.515Z,1001.20
2018-02-09T12:43:52.353Z,1001.15
2018-02-09T12:44:52.318Z,1001.15
2018-02-09T12:46:45.138Z,1001.19
2018-02-09T12:47:45.115Z,1001.12
2018-02-09T12:49:37.971Z,1001.08
2018-02-09T12:50:37.922Z,1001.11
2018-02-09T12:52:30.749Z,1001.06
2018-02-09T12:53:30.730Z,1001.07
2018-02-09T12:55:23.562Z,1001.07
2018-02-09T12:56:23.525Z,1001.07
2018-02-09T12:58:16.352Z,1001.06
2018-02-09T12:59:16.325Z,1001.05
2018-02-09T13:01:09.659Z,1001.08
2018-02-09T13:02:09.623Z,1001.03
2018-02-09T13:04:02.451Z,1001.05
2018-02-09T13:05:02.427Z,1001.05
2018-02-09T13:06:55.272Z,1001.06
2018-02-09T13:07:55.231Z,1000.96
2018-02-09T13:09:48.059Z,1001.00
2018-02-09T13:10:48.033Z,1001.00
2018-02-09T13:12:40.895Z,1001.02
2018-02-09T13:13:40.836Z,1000.93
2018-02-09T13:15:34.161Z,1000.95
2018-02-09T13:16:34.139Z,1000.95
2018-02-09T13:18:27.081Z,1000.91
2018-02-09T13:19:26.935Z,1000.92
2018-02-09T13:21:19.763Z,1000.92
2018-02-09T13:22:19.738Z,1000.91
2018-02-09T13:24:13.090Z,1000.83
2018-02-09T13:25:13.032Z,1000.87
2018-02-09T13:27:05.853Z,1000.80
2018-02-09T13:28:05.829Z,1000.81
2018-02-09T13:29:58.678Z,1000.80
2018-02-09T13:30:58.638Z,1000.77
2018-02-09T13:32:51.486Z,1000.75
2018-02-09T13:33:51.444Z,1000.76
2018-02-09T13:35:44.776Z,1000.77
2018-02-09T13:36:44.739Z,1000.70
2018-02-09T13:38:37.566Z,1000.78
2018-02-09T13:39:37.543Z,1000.76
2018-02-09T13:41:30.872Z,1000.79
2018-02-09T13:42:30.881Z,1000.83
2018-02-09T13:44:23.664Z,1000.78
2018-02-09T13:45:23.634Z,1000.82
2018-02-09T13:47:16.477Z,1000.84
2018-02-09T13:48:16.433Z,1000.81
2018-02-09T13:50:09.262Z,1000.84
2018-02-09T13:51:09.235Z,1000.88
2018-02-09T13:53:02.576Z,1000.86
2018-02-09T13:54:02.540Z,1000.88
2018-02-09T13:55:55.859Z,1000.83
2018-02-09T13:56:55.837Z,1000.87
2018-02-09T13:58:49.174Z,1000.83
2018-02-09T13:59:49.126Z,1000.81
2018-02-09T14:01:41.955Z,1000.75
2018-02-09T14:02:41.928Z,1000.78
2018-02-09T14:04:34.767Z,1000.80
2018-02-09T14:05:34.725Z,1000.79
2018-02-09T14:07:27.554Z,1000.76
2018-02-09T14:08:27.529Z,1000.73
2018-02-09T14:10:20.861Z,1000.76
2018-02-09T14:11:20.821Z,1000.71
2018-02-09T14:13:13.655Z,1000.75
2018-02-09T14:14:13.625Z,1000.77
2018-02-09T14:16:06.466Z,1000.73
2018-02-09T14:17:06.428Z,1000.77
2018-02-09T14:18:59.744Z,1000.71
2018-02-09T14:19:59.723Z,1000.72
2018-02-09T14:21:53.056Z,1000.74
2018-02-09T14:22:53.019Z,1000.70
2018-02-09T14:24:45.842Z,1000.68
2018-02-09T14:25:45.815Z,1000.67
2018-02-09T14:27:39.151Z,1000.73
2018-02-09T14:28:39.113Z,1000.72
2018-02-09T14:30:32.444Z,1000.71
2018-02-09T14:31:32.417Z,1000.74
2018-02-09T14:33:25.258Z,1000.75
2018-02-09T14:34:25.219Z,1000.75
2018-02-09T14:36:18.542Z,1000.75
2018-02-09T14:37:18.516Z,1000.74
2018-02-09T14:39:11.358Z,1000.68
2018-02-09T14:40:11.320Z,1000.67
2018-02-09T14:42:04.647Z,1000.70
2018-02-09T14:43:04.626Z,1000.67
2018-02-09T14:44:57.961Z,1000.69
2018-02-09T14:45:57.922Z,1000.70
2018-02-09T14:47:51.241Z,1000.67
2018-02-09T14:48:51.220Z,1000.65
2018-02-09T14:50:44.063Z,1000.64
2018-02-09T14:51:44.021Z,1000.67
2018-02-09T14:53:37.337Z,1000.65
2018-02-09T14:54:37.314Z,1000.64
2018-02-09T14:56:30.656Z,1000.67
2018-02-09T14:57:30.618Z,1000.59
2018-02-09T14:59:23.444Z,1000.62
2018-02-09T15:00:23.418Z,1000.66
2018-02-09T15:02:16.749Z,1000.66
2018-02-09T15:03:16.712Z,1000.65
2018-02-09T15:05:09.534Z,1000.67
2018-02-09T15:06:09.509Z,1000.66
2018-02-09T15:08:02.842Z,1000.65
2018-02-09T15:09:02.803Z,1000.63
2018-02-09T15:10:55.630Z,1000.63
2018-02-09T15:11:55.603Z,1000.61
2018-02-09T15:13:48.444Z,1000.67
2018-02-09T15:14:48.404Z,1000.63
2018-02-09T15:16:41.232Z,1000.60
2018-02-09T15:17:41.211Z,1000.63
2018-02-09T15:19:34.540Z,1000.60
2018-02-09T15:20:34.501Z,1000.60
2018-02-09T15:22:27.833Z,1000.55
2018-02-09T15:23:27.806Z,1000.55
2018-02-09T15:25:21.140Z,1000.51
2018-02-09T15:26:21.102Z,1000.57
2018-02-09T15:28:13.925Z,1000.53
2018-02-09T15:29:13.900Z,1000.55
2018-02-09T15:31:07.254Z,1000.57
2018-02-09T15:32:07.207Z,1000.56
2018-02-09T15:34:00.033Z,1000.57
2018-02-09T15:35:00.007Z,1000.56
2018-02-09T15:36:52.842Z,1000.61
2018-02-09T15:37:52.803Z,1000.60
2018-02-09T15:39:46.121Z,1000.58
2018-02-09T15:40:46.095Z,1000.59
2018-02-09T15:42:38.942Z,1000.53
2018-02-09T15:43:38.896Z,1000.52
2018-02-09T15:45:32.218Z,1000.54
2018-02-09T15:46:32.194Z,1000.55
2018-02-09T15:48:25.526Z,1000.56
2018-02-09T15:49:25.485Z,1000.58
2018-02-09T15:51:18.810Z,1000.54
2018-02-09T15:52:18.783Z,1000.55
2018-02-09T15:54:11.622Z,1000.57
2018-02-09T15:55:11.588Z,1000.55
2018-02-09T15:57:04.413Z,1000.53
2018-02-09T15:58:04.385Z,1000.55
2018-02-09T15:59:57.718Z,1000.57
2018-02-09T16:00:57.681Z,1000.57
2018-02-09T16:02:50.504Z,1000.56
2018-02-09T16:03:50.477Z,1000.58
2018-02-09T16:05:43.820Z,1000.56
2018-02-09T16:06:43.781Z,1000.60
2018-02-09T16:08:36.605Z,1000.61
2018-02-09T16:09:36.579Z,1000.63
2018-02-09T16:11:29.422Z,1000.66
2018-02-09T16:12:29.381Z,1000.65
2018-02-09T16:14:22.263Z,1000.68
2018-02-09T16:15:22.183Z,1000.65
2018-02-09T16:17:15.019Z,1000.68
2018-02-09T16:18:14.981Z,1000.68
2018-02-09T16:20:08.298Z,1000.63
2018-02-09T16:21:08.274Z,1000.67
2018-02-09T16:23:01.130Z,1000.68
2018-02-09T16:24:01.076Z,1000.67
2018-02-09T16:25:54.398Z,1000.71
2018-02-09T16:26:54.373Z,1000.76
2018-02-09T16:28:47.209Z,1000.69
2018-02-09T16:29:47.170Z,1000.70
2018-02-09T16:31:40.490Z,1000.79
2018-02-09T16:32:40.465Z,1000.74
2018-02-09T16:34:33.331Z,1000.74
2018-02-09T16:35:33.271Z,1000.74
2018-02-09T16:37:26.091Z,1000.75
2018-02-09T16:38:26.070Z,1000.81
2018-02-09T16:40:19.410Z,1000.77
2018-02-09T16:41:19.369Z,1000.83
2018-02-09T16:43:12.689Z,1000.83
2018-02-09T16:44:12.663Z,1000.83
2018-02-09T16:46:06.004Z,1000.84
2018-02-09T16:47:05.964Z,1000.83
2018-02-09T16:48:59.281Z,1000.85
2018-02-09T16:49:59.259Z,1000.90
2018-02-09T16:51:52.102Z,1000.90
2018-02-09T16:52:52.060Z,1000.86
2018-02-09T16:54:44.888Z,1000.88
2018-02-09T16:55:44.868Z,1000.85
2018-02-09T16:57:38.196Z,1000.88
2018-02-09T16:58:38.163Z,1000.87
2018-02-09T17:00:31.478Z,1000.86
2018-02-09T17:01:31.450Z,1000.92
2018-02-09T17:03:24.784Z,1000.86
2018-02-09T17:04:24.746Z,1000.85
2018-02-09T17:06:17.568Z,1000.87
2018-02-09T17:07:17.542Z,1000.84
2018-02-09T17:09:10.878Z,1000.93
2018-02-09T17:10:10.837Z,1000.88
2018-02-09T17:12:03.660Z,1000.89
2018-02-09T17:13:03.635Z,1000.94
2018-02-09T17:14:56.478Z,1000.91
2018-02-09T17:15:56.441Z,1000.95
2018-02-09T17:17:49.266Z,1000.95
2018-02-09T17:18:49.239Z,1000.93
2018-02-09T17:20:42.572Z,1000.93
2018-02-09T17:21:42.533Z,1000.96
2018-02-09T17:23:35.362Z,1000.96
2018-02-09T17:24:35.335Z,1000.99
2018-02-09T17:26:28.675Z,1000.94